• Join FlightAware (Why Join?)
  • Login
  • US Flag 
07:06PM EDT


 

Airport Tracker/Info


-or-


 

Live Flight TrackerFlight Track Log ✈ AM223 ✈ 18-Apr-2013 ✈ YSTW / TMW - YSDU / DBO

Flight Track Log - Related Links

Times and Time Zones

All times are in EDT time to prevent confusion due to time zone crossing. See the AM223 flight status page for this flight to view local times or setup timezone preferences in your user account.

Time Position Orientation Groundspeed Altitude Reporting Facility
EDT Latitude Longitude Course Direction KTS MPH feet Rate Location/Type
07:05AM -31.0650 150.8293 224° Southwest 137 158 2,200  Level Aus ATC (RADAR)
07:07AM -31.0906 150.8001 224° Southwest 144 166 4,800 2,160 Climbing Aus ATC (RADAR)
07:07AM -31.0996 150.8086 141° Southeast 156 180 5,300 2,220 Climbing Aus ATC (RADAR)
07:08AM -31.1350 150.8546 132° Southeast 167 192 8,000 2,280 Climbing Aus ATC (RADAR)
07:09AM -31.1568 150.8730 144° Southeast 167 192 9,300 2,400 Climbing Aus ATC (RADAR)
07:09AM -31.1874 150.8815 167° South 153 176 11,200 2,280 Climbing Aus ATC (RADAR)
07:10AM -31.2242 150.8918 167° South 152 175 13,100 2,040 Climbing Aus ATC (RADAR)
07:11AM -31.2494 150.8985 167° South 158 182 14,300 1,920 Climbing Aus ATC (RADAR)
07:12AM -31.2893 150.9090 167° South 160 184 16,000 1,800 Climbing Aus ATC (RADAR)
07:12AM -31.2998 150.9112 170° South 157 181 16,400 1,680 Climbing Aus ATC (RADAR)
07:13AM -31.3325 150.9159 173° South 159 183 17,700 1,680 Climbing Aus ATC (RADAR)
07:13AM -31.3648 150.9212 172° South 158 182 19,000 1,560 Climbing Aus ATC (RADAR)
07:14AM -31.3864 150.9249 172° South 158 182 19,700 1,140 Climbing Aus ATC (RADAR)
07:14AM -31.3910 150.9260 172° South 160 184 19,800 840 Climbing FlightAware
07:15AM -31.4340 150.9330 172° South 163 188 20,700 540 Climbing FlightAware
07:16AM -31.4600 150.9380 171° South 163 188 20,700  Level FlightAware
07:16AM -31.4850 150.9420 172° South 163 188 20,700 360 Level FlightAware
07:17AM -31.5468 150.9509 172° South 249 287 21,100  Climbing Aus ATC (RADAR)
07:17AM -31.5170 150.9480 172° South 163 188 20,700 -120 Descending FlightAware
07:18AM -31.6310 150.9650 173° South 262 302 21,000 300 Climbing FlightAware
07:18AM -31.6719 150.9712 173° South 271 312 21,100  Climbing Aus ATC (RADAR)
07:19AM -31.6780 150.9720 173° South 263 303 21,000  Descending FlightAware
07:19AM -31.7328 150.9808 173° South 271 312 21,100  Climbing Aus ATC (RADAR)
07:19AM -31.7260 150.9800 173° South 273 314 21,000 -180 Descending FlightAware
07:20AM -31.7860 150.9900 172° South 274 315 21,000 60 Level FlightAware
07:20AM -31.8145 150.9944 172° South 271 312 21,100  Climbing Aus ATC (RADAR)
07:21AM -31.8370 150.9980 172° South 273 314 21,000 -120 Descending FlightAware
07:21AM -31.8930 151.0070 172° South 274 315 21,000 60 Level FlightAware
07:22AM -31.9235 151.0126 172° South 274 315 21,100  Climbing Aus ATC (RADAR)
07:22AM -31.9440 151.0160 172° South 273 314 21,000 -120 Descending FlightAware
07:23AM -32.0010 151.0250 172° South 274 315 21,000 60 Level FlightAware
07:23AM -32.0491 151.0330 172° South 275 316 21,100  Climbing Aus ATC (RADAR)
07:24AM -32.0510 151.0330 172° South 274 315 21,000 -180 Descending FlightAware
07:24AM -32.1020 151.0420 171° South 273 314 21,000  Level FlightAware
07:25AM -32.1570 151.0510 172° South 273 314 21,000  Level FlightAware
07:25AM -32.1871 151.0561 172° South 273 314 21,000  Level Aus ATC (RADAR)
07:26AM -32.2070 151.0590 172° South 264 304 21,000  Level FlightAware
07:26AM -32.2580 151.0670 172° South 263 303 21,000  Level FlightAware
07:27AM -32.2931 151.0735 172° South 273 314 21,000  Level Aus ATC (RADAR)
07:27AM -32.3140 151.0770 172° South 261 300 21,000  Level FlightAware
07:28AM -32.3690 151.0860 172° South 261 300 21,000  Level FlightAware
07:28AM -32.4205 151.0940 172° South 265 305 21,000  Level Aus ATC (RADAR)
07:28AM -32.4190 151.0940 172° South 261 300 21,000  Level FlightAware
07:29AM -32.4604 151.1020 172° South 272 313 21,000  Level Aus ATC (RADAR)
07:29AM -32.4680 151.1020 172° South 261 300 21,000  Level FlightAware
07:30AM -32.5193 151.1104 172° South 265 305 21,000  Level Aus ATC (RADAR)
07:30AM -32.5240 151.1110 172° South 260 299 21,000  Level FlightAware
07:31AM -32.5730 151.1190 172° South 260 299 21,000  Level FlightAware
07:31AM -32.6270 151.1280 172° South 260 299 21,000  Level FlightAware
07:32AM -32.6770 151.1370 171° South 261 300 21,000  Level FlightAware
07:33AM -32.7270 151.1450 172° South 262 302 21,000  Level FlightAware
07:33AM -32.7830 151.1540 172° South 262 302 21,000  Level FlightAware
07:34AM -32.8343 151.1633 172° South 268 308 21,000  Level Aus ATC (RADAR)
07:34AM -32.8330 151.1630 172° South 263 303 21,000  Level FlightAware
07:35AM -32.8800 151.1700 173° South 274 315 21,000 -900 Level FlightAware
07:35AM -32.9440 151.1810 172° South 295 339 19,800 -1,740 Descending FlightAware
07:36AM -32.9755 151.1867 172° South 302 348 19,200 -1,680 Descending Aus ATC (RADAR)
07:36AM -32.9990 151.1900 172° South 305 351 18,700 -1,560 Descending FlightAware
07:37AM -33.0630 151.2010 172° South 306 352 17,500 -1,740 Descending FlightAware
07:37AM -33.0987 151.2072 172° South 299 344 16,800 -1,680 Descending Aus ATC (RADAR)
07:38AM -33.1190 151.2100 172° South 295 339 16,400 -1,560 Descending FlightAware
07:38AM -33.1471 151.2149 172° South 296 341 15,900 -1,500 Descending Aus ATC (RADAR)
07:38AM -33.1740 151.2190 172° South 280 322 15,400 -1,440 Descending FlightAware
07:39AM -33.2260 151.2200 172° South 271 312 14,400 -1,680 Descending FlightAware
07:39AM -33.2354 151.2201 172° South 283 326 14,200 -1,920 Descending Aus ATC (RADAR)
07:39AM -33.2521 151.2190 172° South 276 318 13,900 -1,440 Descending Aus ATC (RADAR)
07:40AM -33.2840 151.2180 172° South 278 320 13,200 -1,500 Descending FlightAware
07:40AM -33.3410 151.2150 183° South 277 319 12,100 -1,500 Descending FlightAware
07:41AM -33.3765 151.2128 183° South 281 323 11,500 -1,620 Descending Aus ATC (RADAR)
07:41AM -33.3957 151.2117 183° South 279 321 11,100 -1,440 Descending Aus ATC (RADAR)
07:41AM -33.3920 151.2120 183° South 278 320 11,100 -1,500 Level FlightAware
07:42AM -33.4374 151.2095 183° South 267 307 10,300 -1,380 Descending Aus ATC (RADAR)
07:42AM -33.4410 151.2090 183° South 261 300 10,200 -1,440 Descending FlightAware
07:42AM -33.4810 151.2070 182° South 257 296 9,400 -1,680 Descending FlightAware
07:43AM -33.5110 151.2050 183° South 257 296 8,700 -1,560 Descending FlightAware
07:43AM -33.5490 151.2030 183° South 257 296 8,000 -1,440 Descending FlightAware
07:44AM -33.5790 151.2020 182° South 257 296 7,300 -1,620 Descending FlightAware
07:44AM -33.6092 151.1998 182° South 259 298 6,800 -1,680 Descending Aus ATC (RADAR)
07:44AM -33.6160 151.2000 182° South 259 298 6,600 -1,500 Descending FlightAware
07:45AM -33.6500 151.1920 191° South 249 287 5,800 -1,800 Descending FlightAware
07:45AM -33.6840 151.1810 195° South 249 287 4,800 -2,100 Descending FlightAware
07:45AM -33.6940 151.1770 198° South 250 288 4,400 -2,280 Descending FlightAware
07:46AM -33.7240 151.1670 195° South 251 289 3,500 -2,040 Descending FlightAware
07:46AM -33.7464 151.1583 195° South 251 289 3,000 -900 Descending Aus ATC (RADAR)
07:46AM -33.7570 151.1540 195° South 219 252 3,000  Level FlightAware
07:47AM -33.7783 151.1461 195° South 203 234 3,000  Level Aus ATC (RADAR)
07:47AM -33.7810 151.1460 195° South 179 206 3,000  Level FlightAware
07:47AM -33.8000 151.1490 173° South 163 188 3,000 -420 Level FlightAware
07:48AM -33.8240 151.1550 168° South 149 171 2,600 -720 Descending FlightAware
07:48AM -33.8430 151.1600 168° South 154 177 2,300 -780 Descending FlightAware
07:48AM -33.8540 151.1630 167° South 151 174 2,100 -900 Descending FlightAware
07:49AM -33.8710 151.1680 166° South 149 171 1,700 -900 Descending FlightAware
07:49AM -33.8810 151.1710 166° South 144 166 1,500 -900 Descending FlightAware
07:49AM -33.8998 151.1754 166° South 136 157 1,100 -840 Descending Aus ATC (RADAR)
07:49AM -33.9010 151.1760 166° South 140 161 1,100 -660 Level FlightAware
07:50AM -33.9290 151.1830 166° South 134 154 600 -720 Descending Aus ATC (RADAR)